Portada
METAR-TAF:

METAR-TAF

Aeroports :

Shell Mera, Equador

latitud: 01-30-19S, longitud: 078-03-46W, altitud: 1056 m

Observació

L'informe es va fer fa 45 minuts, a les 20:00 UTC
Vent 4 kt del Nord-Oest
Temperatura 30°C
Humitat 43%
Pressió 1016 hPa
Visibilitat 10 km o més
Núvols disperses a una alçada de 2600 ft
Núvols disperses a una alçada de 10000 ft

METAR: SESM 192000Z 32004KT 9999 SCT026 SCT100 30/16 Q1016 RMK A3002

Hora: 15:45 (20:45 UTC)


TAF: manca

Observacions i pronòstics meteorològics de més de 4000 aeroports (METAR i TAF).

Les estacions disponibles són els punts grocs i vermells al mapa.

Posi el ratolí al punt desitjat per veure el nom de l'estació.

Feu clic per veure les observacions i els pronòstics meteorològics.

Per canviar el mapa: feu clic els botons verds amb una creu de color negre per apropar; al botó verd amb un guió per allunyar la imatge; o en les fletxes verdes per a mapes adjacents.


METAR-TAF: